sensor_id;sensor_type;location;lat;lon;timestamp;temperature;humidity
37232;DHT22;23125;48.156;15.954;2023-10-08T00:00:46;22.00;32.80
37232;DHT22;23125;48.156;15.954;2023-10-08T00:03:15;22.00;32.80
37232;DHT22;23125;48.156;15.954;2023-10-08T00:05:43;22.00;32.90
37232;DHT22;23125;48.156;15.954;2023-10-08T00:08:09;22.00;32.90
37232;DHT22;23125;48.156;15.954;2023-10-08T00:10:39;22.00;33.00
37232;DHT22;23125;48.156;15.954;2023-10-08T00:13:09;22.00;33.00
37232;DHT22;23125;48.156;15.954;2023-10-08T00:15:36;22.00;33.10
37232;DHT22;23125;48.156;15.954;2023-10-08T00:18:03;22.00;33.10
37232;DHT22;23125;48.156;15.954;2023-10-08T00:20:35;22.00;33.30
37232;DHT22;23125;48.156;15.954;2023-10-08T00:23:11;22.00;33.30
37232;DHT22;23125;48.156;15.954;2023-10-08T00:25:38;22.00;33.90
37232;DHT22;23125;48.156;15.954;2023-10-08T00:28:08;22.00;33.30
37232;DHT22;23125;48.156;15.954;2023-10-08T00:30:40;22.10;33.30
37232;DHT22;23125;48.156;15.954;2023-10-08T00:33:10;22.10;33.40
37232;DHT22;23125;48.156;15.954;2023-10-08T00:35:42;22.10;33.50
37232;DHT22;23125;48.156;15.954;2023-10-08T00:38:09;22.10;33.50
37232;DHT22;23125;48.156;15.954;2023-10-08T00:40:46;22.10;33.60
37232;DHT22;23125;48.156;15.954;2023-10-08T00:46:04;22.10;33.70
37232;DHT22;23125;48.156;15.954;2023-10-08T00:48:31;22.10;33.80
37232;DHT22;23125;48.156;15.954;2023-10-08T00:51:03;22.10;33.80
37232;DHT22;23125;48.156;15.954;2023-10-08T00:56:25;22.10;34.00
37232;DHT22;23125;48.156;15.954;2023-10-08T00:59:09;22.10;34.10
37232;DHT22;23125;48.156;15.954;2023-10-08T01:01:44;22.10;34.20
37232;DHT22;23125;48.156;15.954;2023-10-08T01:04:18;22.10;34.40
37232;DHT22;23125;48.156;15.954;2023-10-08T01:06:53;22.10;34.40
37232;DHT22;23125;48.156;15.954;2023-10-08T01:09:22;22.10;34.50
37232;DHT22;23125;48.156;15.954;2023-10-08T01:12:13;22.10;34.50
37232;DHT22;23125;48.156;15.954;2023-10-08T01:14:45;22.10;34.60
37232;DHT22;23125;48.156;15.954;2023-10-08T01:17:13;22.10;34.60
37232;DHT22;23125;48.156;15.954;2023-10-08T01:19:45;22.10;34.70
37232;DHT22;23125;48.156;15.954;2023-10-08T01:22:22;22.10;35.30
37232;DHT22;23125;48.156;15.954;2023-10-08T01:24:49;22.00;34.70
37232;DHT22;23125;48.156;15.954;2023-10-08T01:27:20;22.00;34.80
37232;DHT22;23125;48.156;15.954;2023-10-08T01:29:50;22.00;34.80
37232;DHT22;23125;48.156;15.954;2023-10-08T01:32:21;22.00;34.90
37232;DHT22;23125;48.156;15.954;2023-10-08T01:34:48;22.00;34.80
37232;DHT22;23125;48.156;15.954;2023-10-08T01:37:16;22.00;34.90
37232;DHT22;23125;48.156;15.954;2023-10-08T01:39:46;22.00;35.00
37232;DHT22;23125;48.156;15.954;2023-10-08T01:42:16;22.00;35.00
37232;DHT22;23125;48.156;15.954;2023-10-08T01:44:49;22.00;35.60
37232;DHT22;23125;48.156;15.954;2023-10-08T01:47:20;22.00;35.10
37232;DHT22;23125;48.156;15.954;2023-10-08T01:49:51;22.00;35.10
37232;DHT22;23125;48.156;15.954;2023-10-08T01:52:23;22.00;35.20
37232;DHT22;23125;48.156;15.954;2023-10-08T01:54:50;22.00;35.30
37232;DHT22;23125;48.156;15.954;2023-10-08T01:57:19;22.00;35.30
37232;DHT22;23125;48.156;15.954;2023-10-08T01:59:45;22.00;35.40
37232;DHT22;23125;48.156;15.954;2023-10-08T02:02:12;22.00;35.60
37232;DHT22;23125;48.156;15.954;2023-10-08T02:04:40;22.00;35.60
37232;DHT22;23125;48.156;15.954;2023-10-08T02:07:07;22.00;35.80
37232;DHT22;23125;48.156;15.954;2023-10-08T02:09:41;22.00;35.90
37232;DHT22;23125;48.156;15.954;2023-10-08T02:12:06;22.00;36.00
37232;DHT22;23125;48.156;15.954;2023-10-08T02:14:34;21.90;36.00
37232;DHT22;23125;48.156;15.954;2023-10-08T02:17:01;21.90;36.10
37232;DHT22;23125;48.156;15.954;2023-10-08T02:19:34;21.90;36.20
37232;DHT22;23125;48.156;15.954;2023-10-08T02:22:03;21.90;36.30
37232;DHT22;23125;48.156;15.954;2023-10-08T02:24:36;21.90;36.40
37232;DHT22;23125;48.156;15.954;2023-10-08T02:27:02;21.90;36.50
37232;DHT22;23125;48.156;15.954;2023-10-08T02:29:31;21.90;36.70
37232;DHT22;23125;48.156;15.954;2023-10-08T02:31:57;21.90;36.80
37232;DHT22;23125;48.156;15.954;2023-10-08T02:34:25;21.90;36.90
37232;DHT22;23125;48.156;15.954;2023-10-08T02:36:52;21.90;37.00
37232;DHT22;23125;48.156;15.954;2023-10-08T02:39:17;21.80;37.00
37232;DHT22;23125;48.156;15.954;2023-10-08T02:41:48;21.90;37.20
37232;DHT22;23125;48.156;15.954;2023-10-08T02:44:14;21.90;37.30
37232;DHT22;23125;48.156;15.954;2023-10-08T02:46:41;21.90;37.40
37232;DHT22;23125;48.156;15.954;2023-10-08T02:49:09;21.80;37.50
37232;DHT22;23125;48.156;15.954;2023-10-08T02:51:39;21.80;37.60
37232;DHT22;23125;48.156;15.954;2023-10-08T02:54:07;21.80;37.70
37232;DHT22;23125;48.156;15.954;2023-10-08T02:56:43;21.80;37.80
37232;DHT22;23125;48.156;15.954;2023-10-08T02:59:13;21.80;37.80
37232;DHT22;23125;48.156;15.954;2023-10-08T03:01:40;21.80;37.80
37232;DHT22;23125;48.156;15.954;2023-10-08T03:04:08;21.80;37.90
37232;DHT22;23125;48.156;15.954;2023-10-08T03:06:46;21.80;37.90
37232;DHT22;23125;48.156;15.954;2023-10-08T03:09:19;21.80;38.00
37232;DHT22;23125;48.156;15.954;2023-10-08T03:11:47;21.80;38.00
37232;DHT22;23125;48.156;15.954;2023-10-08T03:14:15;21.80;38.00
37232;DHT22;23125;48.156;15.954;2023-10-08T03:16:50;21.80;38.00
37232;DHT22;23125;48.156;15.954;2023-10-08T03:19:18;21.80;38.00
37232;DHT22;23125;48.156;15.954;2023-10-08T03:21:49;21.80;38.10
37232;DHT22;23125;48.156;15.954;2023-10-08T03:24:22;21.80;38.10
37232;DHT22;23125;48.156;15.954;2023-10-08T03:27:01;21.80;38.10
37232;DHT22;23125;48.156;15.954;2023-10-08T03:29:38;21.80;38.10
37232;DHT22;23125;48.156;15.954;2023-10-08T03:32:11;21.80;38.20
37232;DHT22;23125;48.156;15.954;2023-10-08T03:34:45;21.80;38.30
37232;DHT22;23125;48.156;15.954;2023-10-08T03:37:22;21.80;38.30
37232;DHT22;23125;48.156;15.954;2023-10-08T03:39:55;21.80;38.30
37232;DHT22;23125;48.156;15.954;2023-10-08T03:42:40;21.80;38.40
37232;DHT22;23125;48.156;15.954;2023-10-08T03:45:07;21.70;38.40
37232;DHT22;23125;48.156;15.954;2023-10-08T03:47:38;21.70;38.40
37232;DHT22;23125;48.156;15.954;2023-10-08T03:50:08;21.70;38.50
37232;DHT22;23125;48.156;15.954;2023-10-08T03:52:42;21.70;38.50
37232;DHT22;23125;48.156;15.954;2023-10-08T03:55:09;21.70;38.60
37232;DHT22;23125;48.156;15.954;2023-10-08T03:57:44;21.60;38.70
37232;DHT22;23125;48.156;15.954;2023-10-08T04:00:13;21.70;38.80
37232;DHT22;23125;48.156;15.954;2023-10-08T04:02:45;21.70;38.80
37232;DHT22;23125;48.156;15.954;2023-10-08T04:05:22;21.70;38.90
37232;DHT22;23125;48.156;15.954;2023-10-08T04:07:53;21.60;38.90
37232;DHT22;23125;48.156;15.954;2023-10-08T04:10:29;21.60;39.00
37232;DHT22;23125;48.156;15.954;2023-10-08T04:13:04;21.60;39.10
37232;DHT22;23125;48.156;15.954;2023-10-08T04:15:42;21.60;39.20
37232;DHT22;23125;48.156;15.954;2023-10-08T04:18:08;21.60;39.30
37232;DHT22;23125;48.156;15.954;2023-10-08T04:20:35;21.60;39.40
37232;DHT22;23125;48.156;15.954;2023-10-08T04:23:05;21.60;39.40
37232;DHT22;23125;48.156;15.954;2023-10-08T04:25:34;21.60;39.40
37232;DHT22;23125;48.156;15.954;2023-10-08T04:28:01;21.60;39.40
37232;DHT22;23125;48.156;15.954;2023-10-08T04:30:32;21.50;39.40
37232;DHT22;23125;48.156;15.954;2023-10-08T04:33:03;21.50;39.50
37232;DHT22;23125;48.156;15.954;2023-10-08T04:35:33;21.50;39.60
37232;DHT22;23125;48.156;15.954;2023-10-08T04:38:05;21.50;39.70
37232;DHT22;23125;48.156;15.954;2023-10-08T04:40:37;21.50;39.80
37232;DHT22;23125;48.156;15.954;2023-10-08T04:43:08;21.50;39.90
37232;DHT22;23125;48.156;15.954;2023-10-08T04:45:37;21.50;40.00
37232;DHT22;23125;48.156;15.954;2023-10-08T04:48:04;21.50;40.10
37232;DHT22;23125;48.156;15.954;2023-10-08T04:50:36;21.50;40.10
37232;DHT22;23125;48.156;15.954;2023-10-08T04:53:03;21.50;40.20
37232;DHT22;23125;48.156;15.954;2023-10-08T04:55:35;21.50;40.30
37232;DHT22;23125;48.156;15.954;2023-10-08T04:58:01;21.50;40.30
37232;DHT22;23125;48.156;15.954;2023-10-08T05:00:37;21.50;40.30
37232;DHT22;23125;48.156;15.954;2023-10-08T05:03:25;21.50;40.30
37232;DHT22;23125;48.156;15.954;2023-10-08T05:05:59;21.40;40.30
37232;DHT22;23125;48.156;15.954;2023-10-08T05:08:31;21.50;40.40
37232;DHT22;23125;48.156;15.954;2023-10-08T05:11:15;21.50;40.30
37232;DHT22;23125;48.156;15.954;2023-10-08T05:13:50;21.50;40.30
37232;DHT22;23125;48.156;15.954;2023-10-08T05:16:32;21.50;40.20
37232;DHT22;23125;48.156;15.954;2023-10-08T05:19:26;21.50;40.20
37232;DHT22;23125;48.156;15.954;2023-10-08T05:22:14;21.50;40.20
37232;DHT22;23125;48.156;15.954;2023-10-08T05:24:47;21.40;40.20
37232;DHT22;23125;48.156;15.954;2023-10-08T05:27:41;21.50;40.20
37232;DHT22;23125;48.156;15.954;2023-10-08T05:30:18;21.50;40.20
37232;DHT22;23125;48.156;15.954;2023-10-08T05:33:04;21.50;40.20
37232;DHT22;23125;48.156;15.954;2023-10-08T05:35:43;21.50;40.30
37232;DHT22;23125;48.156;15.954;2023-10-08T05:38:10;21.50;40.20
37232;DHT22;23125;48.156;15.954;2023-10-08T05:40:43;21.50;40.20
37232;DHT22;23125;48.156;15.954;2023-10-08T05:43:26;21.50;40.20
37232;DHT22;23125;48.156;15.954;2023-10-08T05:46:11;21.50;40.10
37232;DHT22;23125;48.156;15.954;2023-10-08T05:48:54;21.50;40.10
37232;DHT22;23125;48.156;15.954;2023-10-08T05:51:30;21.50;40.20
37232;DHT22;23125;48.156;15.954;2023-10-08T05:57:08;21.50;40.20
37232;DHT22;23125;48.156;15.954;2023-10-08T05:59:45;21.50;40.20
37232;DHT22;23125;48.156;15.954;2023-10-08T06:02:34;21.60;40.20
37232;DHT22;23125;48.156;15.954;2023-10-08T06:05:05;21.60;40.20
37232;DHT22;23125;48.156;15.954;2023-10-08T06:07:58;21.60;40.20
37232;DHT22;23125;48.156;15.954;2023-10-08T06:10:37;21.70;40.30
37232;DHT22;23125;48.156;15.954;2023-10-08T06:13:11;21.70;40.20
37232;DHT22;23125;48.156;15.954;2023-10-08T06:15:57;21.80;40.30
37232;DHT22;23125;48.156;15.954;2023-10-08T06:18:29;21.80;40.30
37232;DHT22;23125;48.156;15.954;2023-10-08T06:20:57;21.90;40.40
37232;DHT22;23125;48.156;15.954;2023-10-08T06:23:28;21.90;40.30
37232;DHT22;23125;48.156;15.954;2023-10-08T06:25:57;22.00;40.30
37232;DHT22;23125;48.156;15.954;2023-10-08T06:28:25;22.00;40.80
37232;DHT22;23125;48.156;15.954;2023-10-08T06:30:54;22.10;40.20
37232;DHT22;23125;48.156;15.954;2023-10-08T06:33:22;22.10;40.20
37232;DHT22;23125;48.156;15.954;2023-10-08T06:35:51;22.10;40.20
37232;DHT22;23125;48.156;15.954;2023-10-08T06:38:33;22.20;40.20
37232;DHT22;23125;48.156;15.954;2023-10-08T06:41:01;22.30;40.20
37232;DHT22;23125;48.156;15.954;2023-10-08T06:43:35;22.30;40.20
37232;DHT22;23125;48.156;15.954;2023-10-08T06:46:05;22.40;40.20
37232;DHT22;23125;48.156;15.954;2023-10-08T06:48:39;22.60;40.50
37232;DHT22;23125;48.156;15.954;2023-10-08T06:51:09;22.90;41.00
37232;DHT22;23125;48.156;15.954;2023-10-08T06:53:42;23.30;41.00
37232;DHT22;23125;48.156;15.954;2023-10-08T06:56:14;23.80;40.70
37232;DHT22;23125;48.156;15.954;2023-10-08T06:58:42;24.20;40.20
37232;DHT22;23125;48.156;15.954;2023-10-08T07:01:14;24.50;39.50
37232;DHT22;23125;48.156;15.954;2023-10-08T07:03:50;24.90;39.00
37232;DHT22;23125;48.156;15.954;2023-10-08T07:06:18;25.20;38.40
37232;DHT22;23125;48.156;15.954;2023-10-08T07:08:58;25.50;38.00
37232;DHT22;23125;48.156;15.954;2023-10-08T07:11:26;25.80;37.40
37232;DHT22;23125;48.156;15.954;2023-10-08T07:13:54;26.10;36.90
37232;DHT22;23125;48.156;15.954;2023-10-08T07:16:21;26.30;36.70
37232;DHT22;23125;48.156;15.954;2023-10-08T07:18:48;26.60;36.60
37232;DHT22;23125;48.156;15.954;2023-10-08T07:21:17;26.90;36.20
37232;DHT22;23125;48.156;15.954;2023-10-08T07:23:43;27.20;36.00
37232;DHT22;23125;48.156;15.954;2023-10-08T07:26:26;27.50;35.60
37232;DHT22;23125;48.156;15.954;2023-10-08T07:29:02;27.30;34.00
37232;DHT22;23125;48.156;15.954;2023-10-08T07:31:35;27.10;33.40
37232;DHT22;23125;48.156;15.954;2023-10-08T07:34:03;26.90;33.70
37232;DHT22;23125;48.156;15.954;2023-10-08T07:36:42;26.90;34.00
37232;DHT22;23125;48.156;15.954;2023-10-08T07:39:09;27.00;34.10
37232;DHT22;23125;48.156;15.954;2023-10-08T07:41:54;27.00;34.60
37232;DHT22;23125;48.156;15.954;2023-10-08T07:44:21;27.00;33.90
37232;DHT22;23125;48.156;15.954;2023-10-08T07:46:51;27.00;34.30
37232;DHT22;23125;48.156;15.954;2023-10-08T07:49:20;27.00;34.10
37232;DHT22;23125;48.156;15.954;2023-10-08T07:51:49;26.90;33.70
37232;DHT22;23125;48.156;15.954;2023-10-08T07:54:22;26.70;33.60
37232;DHT22;23125;48.156;15.954;2023-10-08T07:56:54;26.70;34.10
37232;DHT22;23125;48.156;15.954;2023-10-08T07:59:25;26.70;34.50
37232;DHT22;23125;48.156;15.954;2023-10-08T08:01:51;26.80;34.90
37232;DHT22;23125;48.156;15.954;2023-10-08T08:04:19;26.80;34.30
37232;DHT22;23125;48.156;15.954;2023-10-08T08:06:49;26.60;34.00
37232;DHT22;23125;48.156;15.954;2023-10-08T08:09:18;26.50;34.10
37232;DHT22;23125;48.156;15.954;2023-10-08T08:11:49;26.40;34.30
37232;DHT22;23125;48.156;15.954;2023-10-08T08:14:18;26.20;34.20
37232;DHT22;23125;48.156;15.954;2023-10-08T08:16:51;26.10;34.40
37232;DHT22;23125;48.156;15.954;2023-10-08T08:19:17;26.00;34.80
37232;DHT22;23125;48.156;15.954;2023-10-08T08:21:50;25.90;35.00
37232;DHT22;23125;48.156;15.954;2023-10-08T08:24:18;25.80;35.10
37232;DHT22;23125;48.156;15.954;2023-10-08T08:27:03;25.70;35.20
37232;DHT22;23125;48.156;15.954;2023-10-08T08:29:38;25.70;35.40
37232;DHT22;23125;48.156;15.954;2023-10-08T08:32:12;25.50;35.50
37232;DHT22;23125;48.156;15.954;2023-10-08T08:34:42;25.40;35.70
37232;DHT22;23125;48.156;15.954;2023-10-08T08:37:13;25.30;35.80
37232;DHT22;23125;48.156;15.954;2023-10-08T08:39:40;25.20;35.80
37232;DHT22;23125;48.156;15.954;2023-10-08T08:42:08;25.10;35.90
37232;DHT22;23125;48.156;15.954;2023-10-08T08:44:38;24.90;36.10
37232;DHT22;23125;48.156;15.954;2023-10-08T08:47:14;24.80;36.50
37232;DHT22;23125;48.156;15.954;2023-10-08T08:49:44;24.70;36.60
37232;DHT22;23125;48.156;15.954;2023-10-08T08:52:13;24.50;36.70
37232;DHT22;23125;48.156;15.954;2023-10-08T08:54:42;24.40;37.10
37232;DHT22;23125;48.156;15.954;2023-10-08T08:57:10;24.30;37.30
37232;DHT22;23125;48.156;15.954;2023-10-08T08:59:52;24.20;37.50
37232;DHT22;23125;48.156;15.954;2023-10-08T09:02:19;24.10;37.70
37232;DHT22;23125;48.156;15.954;2023-10-08T09:04:47;24.00;37.90
37232;DHT22;23125;48.156;15.954;2023-10-08T09:07:14;23.90;38.00
37232;DHT22;23125;48.156;15.954;2023-10-08T09:09:40;23.90;38.20
37232;DHT22;23125;48.156;15.954;2023-10-08T09:12:07;23.80;38.40
37232;DHT22;23125;48.156;15.954;2023-10-08T09:14:36;23.70;38.60
37232;DHT22;23125;48.156;15.954;2023-10-08T09:17:05;23.60;38.60
37232;DHT22;23125;48.156;15.954;2023-10-08T09:19:40;23.60;38.90
37232;DHT22;23125;48.156;15.954;2023-10-08T09:22:10;23.50;39.10
37232;DHT22;23125;48.156;15.954;2023-10-08T09:24:41;23.50;39.40
37232;DHT22;23125;48.156;15.954;2023-10-08T09:27:09;23.40;39.50
37232;DHT22;23125;48.156;15.954;2023-10-08T09:29:40;23.30;39.60
37232;DHT22;23125;48.156;15.954;2023-10-08T09:32:12;23.40;39.80
37232;DHT22;23125;48.156;15.954;2023-10-08T09:34:49;23.20;39.90
37232;DHT22;23125;48.156;15.954;2023-10-08T09:37:18;23.20;40.10
37232;DHT22;23125;48.156;15.954;2023-10-08T09:39:49;23.10;40.20
37232;DHT22;23125;48.156;15.954;2023-10-08T09:42:17;23.10;40.40
37232;DHT22;23125;48.156;15.954;2023-10-08T09:44:47;23.10;40.50
37232;DHT22;23125;48.156;15.954;2023-10-08T09:47:15;23.10;40.80
37232;DHT22;23125;48.156;15.954;2023-10-08T09:50:03;23.00;40.90
37232;DHT22;23125;48.156;15.954;2023-10-08T09:55:49;23.00;41.40
37232;DHT22;23125;48.156;15.954;2023-10-08T09:58:24;23.00;41.70
37232;DHT22;23125;48.156;15.954;2023-10-08T10:00:50;23.00;41.70
37232;DHT22;23125;48.156;15.954;2023-10-08T10:03:18;22.90;41.80
37232;DHT22;23125;48.156;15.954;2023-10-08T10:05:45;22.90;42.00
37232;DHT22;23125;48.156;15.954;2023-10-08T10:08:14;22.80;42.10
37232;DHT22;23125;48.156;15.954;2023-10-08T10:10:41;22.70;42.10
37232;DHT22;23125;48.156;15.954;2023-10-08T10:13:15;22.80;42.30
37232;DHT22;23125;48.156;15.954;2023-10-08T10:15:42;22.70;42.20
37232;DHT22;23125;48.156;15.954;2023-10-08T10:18:11;22.60;42.20
37232;DHT22;23125;48.156;15.954;2023-10-08T10:20:44;22.60;42.30
37232;DHT22;23125;48.156;15.954;2023-10-08T10:26:33;22.40;42.40
37232;DHT22;23125;48.156;15.954;2023-10-08T10:31:42;22.20;42.70
37232;DHT22;23125;48.156;15.954;2023-10-08T10:34:17;22.20;42.90
37232;DHT22;23125;48.156;15.954;2023-10-08T10:36:45;22.10;42.80
37232;DHT22;23125;48.156;15.954;2023-10-08T10:39:16;22.00;43.00
37232;DHT22;23125;48.156;15.954;2023-10-08T10:41:46;22.00;43.40
37232;DHT22;23125;48.156;15.954;2023-10-08T10:44:15;22.00;43.30
37232;DHT22;23125;48.156;15.954;2023-10-08T10:46:42;21.90;43.00
37232;DHT22;23125;48.156;15.954;2023-10-08T10:49:09;21.80;43.10
37232;DHT22;23125;48.156;15.954;2023-10-08T10:51:50;21.80;43.30
37232;DHT22;23125;48.156;15.954;2023-10-08T10:54:25;21.70;43.40
37232;DHT22;23125;48.156;15.954;2023-10-08T10:56:52;21.70;43.40
37232;DHT22;23125;48.156;15.954;2023-10-08T10:59:39;21.60;43.60
37232;DHT22;23125;48.156;15.954;2023-10-08T11:02:06;21.60;43.70
37232;DHT22;23125;48.156;15.954;2023-10-08T11:04:47;21.50;43.80
37232;DHT22;23125;48.156;15.954;2023-10-08T11:07:21;21.50;43.80
37232;DHT22;23125;48.156;15.954;2023-10-08T11:09:52;21.40;43.90
37232;DHT22;23125;48.156;15.954;2023-10-08T11:12:20;21.40;44.00
37232;DHT22;23125;48.156;15.954;2023-10-08T11:14:58;21.40;44.30
37232;DHT22;23125;48.156;15.954;2023-10-08T11:17:25;21.30;44.20
37232;DHT22;23125;48.156;15.954;2023-10-08T11:19:52;21.20;44.30
37232;DHT22;23125;48.156;15.954;2023-10-08T11:22:19;21.20;44.60
37232;DHT22;23125;48.156;15.954;2023-10-08T11:24:48;21.10;44.70
37232;DHT22;23125;48.156;15.954;2023-10-08T11:27:19;21.10;44.80
37232;DHT22;23125;48.156;15.954;2023-10-08T11:29:56;21.00;44.90
37232;DHT22;23125;48.156;15.954;2023-10-08T11:32:24;21.00;45.00
37232;DHT22;23125;48.156;15.954;2023-10-08T11:34:56;20.90;45.30
37232;DHT22;23125;48.156;15.954;2023-10-08T11:37:32;20.90;45.60
37232;DHT22;23125;48.156;15.954;2023-10-08T11:40:02;20.90;45.60
37232;DHT22;23125;48.156;15.954;2023-10-08T11:42:43;20.80;45.60
37232;DHT22;23125;48.156;15.954;2023-10-08T11:45:16;20.80;45.70
37232;DHT22;23125;48.156;15.954;2023-10-08T11:47:53;20.70;45.60
37232;DHT22;23125;48.156;15.954;2023-10-08T11:50:31;20.70;45.60
37232;DHT22;23125;48.156;15.954;2023-10-08T11:52:58;20.60;45.60
37232;DHT22;23125;48.156;15.954;2023-10-08T11:55:29;20.60;45.70
37232;DHT22;23125;48.156;15.954;2023-10-08T11:57:55;20.50;45.50
37232;DHT22;23125;48.156;15.954;2023-10-08T12:00:22;20.40;45.60
37232;DHT22;23125;48.156;15.954;2023-10-08T12:02:52;20.30;45.70
37232;DHT22;23125;48.156;15.954;2023-10-08T12:05:21;20.30;45.90
37232;DHT22;23125;48.156;15.954;2023-10-08T12:07:52;20.20;45.50
37232;DHT22;23125;48.156;15.954;2023-10-08T12:10:19;20.20;45.60
37232;DHT22;23125;48.156;15.954;2023-10-08T12:12:48;20.10;45.80
37232;DHT22;23125;48.156;15.954;2023-10-08T12:15:14;20.10;45.80
37232;DHT22;23125;48.156;15.954;2023-10-08T12:17:49;20.00;45.90
37232;DHT22;23125;48.156;15.954;2023-10-08T12:20:35;19.90;45.70
37232;DHT22;23125;48.156;15.954;2023-10-08T12:23:04;19.90;45.60
37232;DHT22;23125;48.156;15.954;2023-10-08T12:25:31;19.80;45.70
37232;DHT22;23125;48.156;15.954;2023-10-08T12:28:01;19.60;45.70
37232;DHT22;23125;48.156;15.954;2023-10-08T12:30:33;19.50;45.60
37232;DHT22;23125;48.156;15.954;2023-10-08T12:33:07;19.40;45.80
37232;DHT22;23125;48.156;15.954;2023-10-08T12:35:42;19.40;46.20
37232;DHT22;23125;48.156;15.954;2023-10-08T12:38:08;19.30;46.30
37232;DHT22;23125;48.156;15.954;2023-10-08T12:40:36;19.30;46.20
37232;DHT22;23125;48.156;15.954;2023-10-08T12:43:14;19.20;46.30
37232;DHT22;23125;48.156;15.954;2023-10-08T12:45:49;19.10;46.40
37232;DHT22;23125;48.156;15.954;2023-10-08T12:48:21;19.10;46.70
37232;DHT22;23125;48.156;15.954;2023-10-08T12:50:48;19.10;47.00
37232;DHT22;23125;48.156;15.954;2023-10-08T12:53:24;19.00;47.20
37232;DHT22;23125;48.156;15.954;2023-10-08T12:56:00;19.00;47.00
37232;DHT22;23125;48.156;15.954;2023-10-08T12:58:32;18.90;47.00
37232;DHT22;23125;48.156;15.954;2023-10-08T13:01:04;18.80;47.30
37232;DHT22;23125;48.156;15.954;2023-10-08T13:03:32;18.80;47.50
37232;DHT22;23125;48.156;15.954;2023-10-08T13:05:59;18.80;47.70
37232;DHT22;23125;48.156;15.954;2023-10-08T13:08:37;18.80;47.80
37232;DHT22;23125;48.156;15.954;2023-10-08T13:11:03;18.70;47.80
37232;DHT22;23125;48.156;15.954;2023-10-08T13:13:32;18.70;48.00
37232;DHT22;23125;48.156;15.954;2023-10-08T13:16:00;18.70;48.80
37232;DHT22;23125;48.156;15.954;2023-10-08T13:18:29;18.60;48.30
37232;DHT22;23125;48.156;15.954;2023-10-08T13:20:55;18.60;48.40
37232;DHT22;23125;48.156;15.954;2023-10-08T13:23:23;18.60;48.60
37232;DHT22;23125;48.156;15.954;2023-10-08T13:25:56;18.60;48.80
37232;DHT22;23125;48.156;15.954;2023-10-08T13:28:24;18.60;48.90
37232;DHT22;23125;48.156;15.954;2023-10-08T13:30:53;18.50;48.80
37232;DHT22;23125;48.156;15.954;2023-10-08T13:33:23;18.50;48.80
37232;DHT22;23125;48.156;15.954;2023-10-08T13:35:50;18.50;49.00
37232;DHT22;23125;48.156;15.954;2023-10-08T13:38:20;18.40;49.10
37232;DHT22;23125;48.156;15.954;2023-10-08T13:40:46;18.40;49.30
37232;DHT22;23125;48.156;15.954;2023-10-08T13:43:31;18.30;49.10
37232;DHT22;23125;48.156;15.954;2023-10-08T13:46:05;18.30;49.40
37232;DHT22;23125;48.156;15.954;2023-10-08T13:48:34;18.30;49.70
37232;DHT22;23125;48.156;15.954;2023-10-08T13:51:05;18.30;49.80
37232;DHT22;23125;48.156;15.954;2023-10-08T13:53:37;18.30;50.10
37232;DHT22;23125;48.156;15.954;2023-10-08T13:56:05;18.30;50.20
37232;DHT22;23125;48.156;15.954;2023-10-08T13:58:31;18.20;50.00
37232;DHT22;23125;48.156;15.954;2023-10-08T14:01:00;18.20;50.00
37232;DHT22;23125;48.156;15.954;2023-10-08T14:03:30;18.10;50.10
37232;DHT22;23125;48.156;15.954;2023-10-08T14:05:59;18.10;50.30
37232;DHT22;23125;48.156;15.954;2023-10-08T14:08:30;18.10;50.30
37232;DHT22;23125;48.156;15.954;2023-10-08T14:10:59;18.10;50.40
37232;DHT22;23125;48.156;15.954;2023-10-08T14:13:32;18.00;50.60
37232;DHT22;23125;48.156;15.954;2023-10-08T14:15:58;18.00;50.80
37232;DHT22;23125;48.156;15.954;2023-10-08T14:18:25;18.00;51.00
37232;DHT22;23125;48.156;15.954;2023-10-08T14:20:55;17.90;50.90
37232;DHT22;23125;48.156;15.954;2023-10-08T14:23:24;17.90;51.00
37232;DHT22;23125;48.156;15.954;2023-10-08T14:25:53;17.90;51.10
37232;DHT22;23125;48.156;15.954;2023-10-08T14:28:28;17.90;51.30
37232;DHT22;23125;48.156;15.954;2023-10-08T14:31:08;17.90;51.60
37232;DHT22;23125;48.156;15.954;2023-10-08T14:33:41;17.90;51.80
37232;DHT22;23125;48.156;15.954;2023-10-08T14:36:10;17.90;51.80
37232;DHT22;23125;48.156;15.954;2023-10-08T14:38:54;18.00;51.90
37232;DHT22;23125;48.156;15.954;2023-10-08T14:41:39;18.00;51.80
37232;DHT22;23125;48.156;15.954;2023-10-08T14:44:23;17.90;51.70
37232;DHT22;23125;48.156;15.954;2023-10-08T14:46:50;17.90;51.90
37232;DHT22;23125;48.156;15.954;2023-10-08T14:49:17;17.90;51.90
37232;DHT22;23125;48.156;15.954;2023-10-08T14:51:43;17.90;51.90
37232;DHT22;23125;48.156;15.954;2023-10-08T14:54:09;17.90;52.00
37232;DHT22;23125;48.156;15.954;2023-10-08T14:56:36;17.90;52.00
37232;DHT22;23125;48.156;15.954;2023-10-08T14:59:03;17.90;52.20
37232;DHT22;23125;48.156;15.954;2023-10-08T15:01:29;17.90;52.80
37232;DHT22;23125;48.156;15.954;2023-10-08T15:04:00;17.80;52.20
37232;DHT22;23125;48.156;15.954;2023-10-08T15:06:32;17.80;52.30
37232;DHT22;23125;48.156;15.954;2023-10-08T15:08:59;17.80;52.40
37232;DHT22;23125;48.156;15.954;2023-10-08T15:11:24;17.80;52.50
37232;DHT22;23125;48.156;15.954;2023-10-08T15:13:56;17.70;52.60
37232;DHT22;23125;48.156;15.954;2023-10-08T15:16:23;17.70;52.70
37232;DHT22;23125;48.156;15.954;2023-10-08T15:18:51;17.70;52.90
37232;DHT22;23125;48.156;15.954;2023-10-08T15:21:17;17.70;53.00
37232;DHT22;23125;48.156;15.954;2023-10-08T15:23:44;17.70;53.10
37232;DHT22;23125;48.156;15.954;2023-10-08T15:26:13;17.60;53.00
37232;DHT22;23125;48.156;15.954;2023-10-08T15:28:39;17.60;53.20
37232;DHT22;23125;48.156;15.954;2023-10-08T15:31:06;17.60;53.40
37232;DHT22;23125;48.156;15.954;2023-10-08T15:33:33;17.60;53.50
37232;DHT22;23125;48.156;15.954;2023-10-08T15:35:58;17.60;53.60
37232;DHT22;23125;48.156;15.954;2023-10-08T15:38:26;17.60;53.60
37232;DHT22;23125;48.156;15.954;2023-10-08T15:40:51;17.50;53.60
37232;DHT22;23125;48.156;15.954;2023-10-08T15:43:17;17.50;53.70
37232;DHT22;23125;48.156;15.954;2023-10-08T15:45:44;17.50;53.90
37232;DHT22;23125;48.156;15.954;2023-10-08T15:48:11;17.50;54.00
37232;DHT22;23125;48.156;15.954;2023-10-08T15:50:37;17.50;54.00
37232;DHT22;23125;48.156;15.954;2023-10-08T15:53:03;17.40;54.10
37232;DHT22;23125;48.156;15.954;2023-10-08T15:55:30;17.40;54.20
37232;DHT22;23125;48.156;15.954;2023-10-08T15:57:56;17.40;54.30